createdAt,value
2022-10-05T00:04:12.846Z,4.9
2022-10-05T00:09:57.075Z,4.6
2022-10-05T00:15:40.454Z,4.5
2022-10-05T00:21:25.082Z,4.7
2022-10-05T00:27:13.589Z,4.1
2022-10-05T00:33:01.321Z,4.2
2022-10-05T00:38:44.929Z,4.2
2022-10-05T00:44:33.476Z,4.1
2022-10-05T00:50:27.984Z,4.5
2022-10-05T00:56:16.073Z,4.2
2022-10-05T01:02:02.527Z,4.2
2022-10-05T01:07:48.494Z,4.1
2022-10-05T01:13:35.885Z,4.1
2022-10-05T01:19:26.983Z,3.8
2022-10-05T01:25:18.995Z,3.8
2022-10-05T01:31:07.909Z,3.7
2022-10-05T01:36:57.382Z,4
2022-10-05T01:42:47.887Z,4
2022-10-05T01:48:36.758Z,3.7
2022-10-05T01:54:26.558Z,3.6
2022-10-05T02:00:11.166Z,3.4
2022-10-05T02:05:58.636Z,3.9
2022-10-05T02:11:44.090Z,3.6
2022-10-05T02:17:29.575Z,3.3
2022-10-05T02:23:15.914Z,3.4
2022-10-05T02:29:00.959Z,3.4
2022-10-05T02:34:45.001Z,3.5
2022-10-05T02:40:34.066Z,3.3
2022-10-05T02:46:21.246Z,3.2
2022-10-05T02:52:08.113Z,3.1
2022-10-05T02:57:56.039Z,3.2
2022-10-05T03:03:41.942Z,2.8
2022-10-05T03:09:28.916Z,2.8
2022-10-05T03:15:17.654Z,3.1
2022-10-05T03:21:06.406Z,2.9
2022-10-05T03:26:54.866Z,3
2022-10-05T03:32:43.306Z,2.9
2022-10-05T03:38:32.049Z,3.1
2022-10-05T03:44:26.362Z,3.1
2022-10-05T03:50:20.864Z,2.8
2022-10-05T03:56:07.984Z,2.5
2022-10-05T04:01:53.853Z,2.6
2022-10-05T04:07:41.249Z,2.9
2022-10-05T04:13:27.707Z,2.7
2022-10-05T04:19:14.670Z,2.6
2022-10-05T04:25:01.506Z,2.9
2022-10-05T04:30:47.949Z,2.4
2022-10-05T04:36:34.987Z,2.4
2022-10-05T04:42:23.323Z,2.6
2022-10-05T04:48:21.767Z,2.4
2022-10-05T04:54:10.515Z,2.6
2022-10-05T05:00:02.282Z,2.4
2022-10-05T05:06:16.215Z,2.4
2022-10-05T05:11:59.134Z,2.5
2022-10-05T05:17:49.779Z,2.4
2022-10-05T05:23:37.075Z,2.4
2022-10-05T05:29:23.207Z,2.2
2022-10-05T05:35:14.443Z,2.4
2022-10-05T05:41:02.049Z,2.2
2022-10-05T05:47:03.813Z,2.2
2022-10-05T05:52:51.523Z,2.3
2022-10-05T05:58:37.007Z,2.1
2022-10-05T06:04:24.046Z,2.4
2022-10-05T06:10:12.115Z,2.7
2022-10-05T06:15:57.354Z,2.6
2022-10-05T06:21:44.158Z,2.5
2022-10-05T06:27:36.347Z,2.4
2022-10-05T06:33:27.290Z,2.6
2022-10-05T06:39:30.303Z,2.7
2022-10-05T06:45:18.321Z,3
2022-10-05T06:51:06.110Z,2.7
2022-10-05T06:56:52.745Z,2.6
2022-10-05T07:02:40.557Z,2.5
2022-10-05T07:08:28.875Z,2.5
2022-10-05T07:14:22.300Z,2.4
2022-10-05T07:20:10.692Z,2.6
2022-10-05T07:25:58.879Z,2.7
2022-10-05T07:31:47.020Z,2.5
2022-10-05T07:37:34.909Z,2.4
2022-10-05T07:43:57.802Z,2.6
2022-10-05T07:49:35.973Z,2.1
2022-10-05T07:55:20.926Z,2.4
2022-10-05T08:01:09.939Z,2.4
2022-10-05T08:06:54.852Z,2.5
2022-10-05T08:12:42.955Z,2.3
2022-10-05T08:18:31.688Z,2.3
2022-10-05T08:24:21.179Z,2.5
2022-10-05T08:30:05.985Z,2
2022-10-05T08:35:53.244Z,2.4
2022-10-05T08:41:53.718Z,2.1
2022-10-05T08:47:56.962Z,2.1
2022-10-05T08:53:52.781Z,1.9
2022-10-05T08:59:50.228Z,2
2022-10-05T09:05:50.929Z,1.9
2022-10-05T09:11:37.538Z,1.8
2022-10-05T09:17:27.418Z,1.8
2022-10-05T09:23:14.829Z,2
2022-10-05T09:29:03.117Z,1.7
2022-10-05T09:35:03.195Z,1.8
2022-10-05T09:40:59.885Z,1.7
2022-10-05T09:46:54.459Z,1.5
2022-10-05T09:52:55.082Z,1.6
2022-10-05T09:58:55.326Z,1.6
2022-10-05T10:04:45.787Z,1.4
2022-10-05T10:10:40.319Z,1.5
2022-10-05T10:16:28.320Z,1.5
2022-10-05T10:22:28.554Z,1.5
2022-10-05T10:28:22.047Z,1.6
2022-10-05T10:34:11.386Z,1.8
2022-10-05T10:40:02.971Z,1.7
2022-10-05T10:45:58.493Z,1.8
2022-10-05T10:51:52.708Z,1.9
2022-10-05T10:57:42.071Z,1.7
2022-10-05T11:03:42.033Z,1.8
2022-10-05T11:09:33.330Z,1.6
2022-10-05T11:15:29.074Z,1.6
2022-10-05T11:21:27.530Z,1.6
2022-10-05T11:33:15.069Z,1.7
2022-10-05T11:39:24.429Z,1.5
2022-10-05T11:45:24.923Z,1.5
2022-10-05T11:51:30.858Z,1.7
2022-10-05T11:57:17.376Z,1.6
2022-10-05T12:03:12.545Z,1.4
2022-10-05T12:09:02.535Z,1.5
2022-10-05T12:14:53.770Z,1.6
2022-10-05T12:20:42.165Z,1.6
2022-10-05T12:26:27.699Z,1.4
2022-10-05T12:32:17.685Z,1.5
2022-10-05T12:38:03.506Z,1.7
2022-10-05T12:43:53.823Z,1.7
2022-10-05T12:49:44.503Z,1.7
2022-10-05T12:55:31.414Z,1.4
2022-10-05T13:01:19.651Z,1.5
2022-10-05T13:07:14.805Z,1.5
2022-10-05T13:13:02.961Z,1.4
2022-10-05T13:18:53.172Z,1.4
2022-10-05T13:24:39.725Z,1.5
2022-10-05T13:30:23.258Z,1.5
2022-10-05T13:36:12.981Z,1.4
2022-10-05T13:42:00.628Z,1.3
2022-10-05T13:47:48.958Z,1.5
2022-10-05T13:53:37.424Z,1.4
2022-10-05T13:59:26.162Z,1.5
2022-10-05T14:05:15.949Z,1.4
2022-10-05T14:10:59.043Z,1.2
2022-10-05T14:16:45.846Z,1.5
2022-10-05T14:22:29.330Z,1.4
2022-10-05T14:28:19.002Z,1.3
2022-10-05T14:34:07.799Z,1.3
2022-10-05T14:39:51.966Z,1.4
2022-10-05T14:45:35.279Z,1.4
2022-10-05T14:51:23.579Z,1.2
2022-10-05T14:57:15.650Z,1.3
2022-10-05T15:03:13.040Z,1.3
2022-10-05T15:09:17.527Z,1.4
2022-10-05T15:15:04.046Z,1.2
2022-10-05T15:20:51.945Z,1.4
2022-10-05T15:26:40.758Z,1.3
2022-10-05T15:32:29.295Z,1.6
2022-10-05T15:38:16.299Z,1.5
2022-10-05T15:44:06.510Z,1.4
2022-10-05T15:49:56.005Z,1.5
2022-10-05T15:55:43.565Z,1.8
2022-10-05T16:01:32.049Z,1.9
2022-10-05T16:07:20.145Z,1.9
2022-10-05T16:13:09.995Z,2.2
2022-10-05T16:18:58.006Z,2.3
2022-10-05T16:24:51.946Z,2.5
2022-10-05T16:30:40.132Z,2.3
2022-10-05T16:36:28.300Z,2.3
2022-10-05T16:42:16.327Z,2.2
2022-10-05T16:48:04.203Z,2.3
2022-10-05T16:53:52.911Z,2.2
2022-10-05T16:59:49.755Z,2.1
2022-10-05T17:05:40.543Z,2.3
2022-10-05T17:11:29.970Z,1.9
2022-10-05T17:17:30.489Z,1.9
2022-10-05T17:23:26.462Z,2.3
2022-10-05T17:29:15.838Z,2.1
2022-10-05T17:35:20.733Z,2.2
2022-10-05T17:41:15.597Z,2.4
2022-10-05T17:47:00.073Z,2.3
2022-10-05T17:52:43.975Z,2.4
2022-10-05T17:58:38.646Z,2.5
2022-10-05T18:04:27.133Z,2.2
2022-10-05T18:10:28.058Z,2.3
2022-10-05T18:16:12.605Z,2.2
2022-10-05T18:22:10.026Z,2.2
2022-10-05T18:28:00.511Z,2.2
2022-10-05T18:33:56.501Z,2.3
2022-10-05T18:39:52.020Z,2.3
2022-10-05T18:45:40.505Z,2.3
2022-10-05T18:51:29.773Z,2.3
2022-10-05T18:57:23.658Z,2.2
2022-10-05T19:03:11.684Z,2.5
2022-10-05T19:09:00.145Z,2.2
2022-10-05T19:14:48.283Z,2.4
2022-10-05T19:20:33.731Z,2.3
2022-10-05T19:26:24.434Z,2.2
2022-10-05T19:32:13.047Z,2.3
2022-10-05T19:38:01.967Z,2.4
2022-10-05T19:43:51.685Z,3
2022-10-05T19:49:42.265Z,2.4
2022-10-05T19:55:33.323Z,2.6
2022-10-05T20:01:21.719Z,2.3
2022-10-05T20:07:05.786Z,2.3
2022-10-05T20:12:55.626Z,2.3
2022-10-05T20:18:47.546Z,1.9
2022-10-05T20:24:31.190Z,2
2022-10-05T20:30:15.693Z,1.9
2022-10-05T20:35:59.028Z,1.8
2022-10-05T20:41:42.215Z,1.8
2022-10-05T20:47:25.970Z,1.9
2022-10-05T20:53:13.811Z,1.6
2022-10-05T20:58:57.431Z,1.7
2022-10-05T21:04:44.125Z,1.6
2022-10-05T21:10:27.503Z,1.5
2022-10-05T21:16:10.950Z,1.4
2022-10-05T21:21:54.263Z,1.4
2022-10-05T21:27:37.549Z,1.4
2022-10-05T21:33:20.884Z,1.3
2022-10-05T21:39:04.122Z,1.2
2022-10-05T21:44:47.489Z,1.3
2022-10-05T21:50:30.728Z,1.3
2022-10-05T21:56:15.807Z,1.2
2022-10-05T22:01:59.349Z,1.2
2022-10-05T22:07:42.638Z,1.2
2022-10-05T22:13:26.643Z,1.5
2022-10-05T22:19:14.350Z,1.1
2022-10-05T22:24:57.571Z,1.4
2022-10-05T22:30:41.434Z,1.3
2022-10-05T22:36:24.805Z,1.7
2022-10-05T22:42:08.201Z,1.8
2022-10-05T22:47:51.727Z,2.3
2022-10-05T22:53:34.942Z,2.2
2022-10-05T22:59:18.272Z,2.1
2022-10-05T23:05:01.370Z,2.6
2022-10-05T23:10:44.622Z,2.3
2022-10-05T23:16:29.966Z,2.1
2022-10-05T23:22:13.694Z,2.1
2022-10-05T23:27:57.086Z,2.4
2022-10-05T23:33:40.382Z,2.5
2022-10-05T23:39:24.438Z,2.3
2022-10-05T23:45:08.158Z,2.4
2022-10-05T23:50:51.239Z,2.2
2022-10-05T23:56:34.554Z,2.1
